sensor_id;sensor_type;location;lat;lon;timestamp;P1;durP1;ratioP1;P2;durP2;ratioP2
75971;SDS011;64651;47.540;19.088;2023-07-13T00:04:59;11.20;;;5.70;;
75971;SDS011;64651;47.540;19.088;2023-07-13T00:10:02;11.32;;;5.68;;
75971;SDS011;64651;47.540;19.088;2023-07-13T00:15:16;11.43;;;4.82;;
75971;SDS011;64651;47.540;19.088;2023-07-13T00:20:25;9.27;;;4.20;;
75971;SDS011;64651;47.540;19.088;2023-07-13T00:25:27;9.63;;;4.85;;
75971;SDS011;64651;47.540;19.088;2023-07-13T00:30:32;9.27;;;4.67;;
75971;SDS011;64651;47.540;19.088;2023-07-13T00:35:35;10.57;;;4.78;;
75971;SDS011;64651;47.540;19.088;2023-07-13T00:40:37;9.65;;;5.20;;
75971;SDS011;64651;47.540;19.088;2023-07-13T00:50:44;8.13;;;3.97;;
75971;SDS011;64651;47.540;19.088;2023-07-13T00:55:52;8.93;;;4.00;;
75971;SDS011;64651;47.540;19.088;2023-07-13T01:00:56;8.68;;;3.97;;
75971;SDS011;64651;47.540;19.088;2023-07-13T01:05:59;8.98;;;4.40;;
75971;SDS011;64651;47.540;19.088;2023-07-13T01:11:01;8.47;;;4.33;;
75971;SDS011;64651;47.540;19.088;2023-07-13T01:16:05;8.55;;;4.35;;
75971;SDS011;64651;47.540;19.088;2023-07-13T01:21:16;11.00;;;4.80;;
75971;SDS011;64651;47.540;19.088;2023-07-13T01:26:20;11.32;;;4.25;;
75971;SDS011;64651;47.540;19.088;2023-07-13T01:31:23;8.10;;;4.32;;
75971;SDS011;64651;47.540;19.088;2023-07-13T01:36:25;9.53;;;4.80;;
75971;SDS011;64651;47.540;19.088;2023-07-13T01:41:27;9.75;;;4.25;;
75971;SDS011;64651;47.540;19.088;2023-07-13T01:46:29;8.83;;;4.43;;
75971;SDS011;64651;47.540;19.088;2023-07-13T01:51:32;10.43;;;4.28;;
75971;SDS011;64651;47.540;19.088;2023-07-13T01:56:35;9.13;;;3.92;;
75971;SDS011;64651;47.540;19.088;2023-07-13T02:01:37;11.00;;;4.70;;
75971;SDS011;64651;47.540;19.088;2023-07-13T02:06:39;8.75;;;4.40;;
75971;SDS011;64651;47.540;19.088;2023-07-13T02:11:41;9.07;;;4.10;;
75971;SDS011;64651;47.540;19.088;2023-07-13T02:16:44;10.15;;;4.40;;
75971;SDS011;64651;47.540;19.088;2023-07-13T02:21:46;9.43;;;3.83;;
75971;SDS011;64651;47.540;19.088;2023-07-13T02:26:48;8.27;;;4.27;;
75971;SDS011;64651;47.540;19.088;2023-07-13T02:31:50;9.30;;;3.90;;
75971;SDS011;64651;47.540;19.088;2023-07-13T02:36:52;8.93;;;3.93;;
75971;SDS011;64651;47.540;19.088;2023-07-13T02:41:55;9.93;;;4.62;;
75971;SDS011;64651;47.540;19.088;2023-07-13T02:46:57;10.45;;;5.07;;
75971;SDS011;64651;47.540;19.088;2023-07-13T02:51:59;10.10;;;5.10;;
75971;SDS011;64651;47.540;19.088;2023-07-13T02:57:01;10.32;;;5.40;;
75971;SDS011;64651;47.540;19.088;2023-07-13T03:02:04;13.20;;;5.53;;
75971;SDS011;64651;47.540;19.088;2023-07-13T03:07:06;10.15;;;5.70;;
75971;SDS011;64651;47.540;19.088;2023-07-13T03:12:09;11.57;;;5.45;;
75971;SDS011;64651;47.540;19.088;2023-07-13T03:17:11;10.27;;;5.40;;
75971;SDS011;64651;47.540;19.088;2023-07-13T03:22:14;13.57;;;5.22;;
75971;SDS011;64651;47.540;19.088;2023-07-13T03:27:17;12.23;;;5.33;;
75971;SDS011;64651;47.540;19.088;2023-07-13T03:32:19;10.00;;;5.00;;
75971;SDS011;64651;47.540;19.088;2023-07-13T03:37:21;13.45;;;5.10;;
75971;SDS011;64651;47.540;19.088;2023-07-13T03:42:24;9.83;;;5.17;;
75971;SDS011;64651;47.540;19.088;2023-07-13T03:47:26;10.00;;;4.87;;
75971;SDS011;64651;47.540;19.088;2023-07-13T03:52:28;10.73;;;5.00;;
75971;SDS011;64651;47.540;19.088;2023-07-13T03:57:31;9.95;;;4.80;;
75971;SDS011;64651;47.540;19.088;2023-07-13T04:02:33;9.82;;;4.65;;
75971;SDS011;64651;47.540;19.088;2023-07-13T04:07:35;12.63;;;4.43;;
75971;SDS011;64651;47.540;19.088;2023-07-13T04:12:37;8.13;;;4.12;;
75971;SDS011;64651;47.540;19.088;2023-07-13T04:17:39;9.33;;;3.80;;
75971;SDS011;64651;47.540;19.088;2023-07-13T04:22:41;8.63;;;4.20;;
75971;SDS011;64651;47.540;19.088;2023-07-13T04:27:44;10.98;;;4.35;;
75971;SDS011;64651;47.540;19.088;2023-07-13T04:32:46;10.13;;;4.30;;
75971;SDS011;64651;47.540;19.088;2023-07-13T04:37:49;9.02;;;4.10;;
75971;SDS011;64651;47.540;19.088;2023-07-13T04:42:52;8.23;;;4.07;;
75971;SDS011;64651;47.540;19.088;2023-07-13T04:47:54;9.98;;;4.18;;
75971;SDS011;64651;47.540;19.088;2023-07-13T04:52:56;9.63;;;4.45;;
75971;SDS011;64651;47.540;19.088;2023-07-13T04:57:58;9.53;;;4.23;;
75971;SDS011;64651;47.540;19.088;2023-07-13T05:03:02;10.20;;;4.72;;
75971;SDS011;64651;47.540;19.088;2023-07-13T05:08:05;9.60;;;4.40;;
75971;SDS011;64651;47.540;19.088;2023-07-13T05:13:09;13.00;;;4.55;;
75971;SDS011;64651;47.540;19.088;2023-07-13T05:18:11;9.20;;;4.22;;
75971;SDS011;64651;47.540;19.088;2023-07-13T05:23:13;9.60;;;3.63;;
75971;SDS011;64651;47.540;19.088;2023-07-13T05:28:15;10.50;;;4.15;;
75971;SDS011;64651;47.540;19.088;2023-07-13T05:33:17;10.00;;;4.23;;
75971;SDS011;64651;47.540;19.088;2023-07-13T05:38:20;11.02;;;3.97;;
75971;SDS011;64651;47.540;19.088;2023-07-13T05:43:22;9.82;;;3.97;;
75971;SDS011;64651;47.540;19.088;2023-07-13T05:48:25;11.73;;;3.90;;
75971;SDS011;64651;47.540;19.088;2023-07-13T05:53:27;7.30;;;3.58;;
75971;SDS011;64651;47.540;19.088;2023-07-13T05:58:29;8.03;;;3.50;;
75971;SDS011;64651;47.540;19.088;2023-07-13T06:03:32;7.90;;;3.83;;
75971;SDS011;64651;47.540;19.088;2023-07-13T06:08:35;9.45;;;3.60;;
75971;SDS011;64651;47.540;19.088;2023-07-13T06:13:37;9.07;;;4.23;;
75971;SDS011;64651;47.540;19.088;2023-07-13T06:18:40;11.00;;;4.80;;
75971;SDS011;64651;47.540;19.088;2023-07-13T06:23:43;9.20;;;4.50;;
75971;SDS011;64651;47.540;19.088;2023-07-13T06:28:46;8.52;;;3.50;;
75971;SDS011;64651;47.540;19.088;2023-07-13T06:33:49;9.48;;;4.10;;
75971;SDS011;64651;47.540;19.088;2023-07-13T06:38:58;10.10;;;4.10;;
75971;SDS011;64651;47.540;19.088;2023-07-13T06:44:00;7.62;;;3.50;;
75971;SDS011;64651;47.540;19.088;2023-07-13T06:49:02;8.13;;;3.70;;
75971;SDS011;64651;47.540;19.088;2023-07-13T06:54:05;8.57;;;3.20;;
75971;SDS011;64651;47.540;19.088;2023-07-13T06:59:07;7.65;;;3.58;;
75971;SDS011;64651;47.540;19.088;2023-07-13T07:04:10;8.37;;;3.40;;
75971;SDS011;64651;47.540;19.088;2023-07-13T07:09:12;7.60;;;3.45;;
75971;SDS011;64651;47.540;19.088;2023-07-13T07:14:15;9.17;;;3.57;;
75971;SDS011;64651;47.540;19.088;2023-07-13T07:19:17;7.20;;;3.05;;
75971;SDS011;64651;47.540;19.088;2023-07-13T07:24:19;7.03;;;3.15;;
75971;SDS011;64651;47.540;19.088;2023-07-13T07:29:22;7.60;;;2.87;;
75971;SDS011;64651;47.540;19.088;2023-07-13T07:34:27;7.45;;;3.40;;
75971;SDS011;64651;47.540;19.088;2023-07-13T07:39:29;7.43;;;3.30;;
75971;SDS011;64651;47.540;19.088;2023-07-13T07:44:32;7.35;;;3.50;;
75971;SDS011;64651;47.540;19.088;2023-07-13T07:49:35;8.95;;;4.18;;
75971;SDS011;64651;47.540;19.088;2023-07-13T07:54:38;9.03;;;3.90;;
75971;SDS011;64651;47.540;19.088;2023-07-13T07:59:43;7.82;;;3.83;;
75971;SDS011;64651;47.540;19.088;2023-07-13T08:04:48;6.87;;;3.30;;
75971;SDS011;64651;47.540;19.088;2023-07-13T08:09:53;9.13;;;3.28;;
75971;SDS011;64651;47.540;19.088;2023-07-13T08:14:56;7.60;;;4.05;;
75971;SDS011;64651;47.540;19.088;2023-07-13T08:20:02;7.13;;;4.00;;
75971;SDS011;64651;47.540;19.088;2023-07-13T08:25:06;7.78;;;5.00;;
75971;SDS011;64651;47.540;19.088;2023-07-13T08:30:08;8.17;;;4.50;;
75971;SDS011;64651;47.540;19.088;2023-07-13T08:35:11;8.02;;;4.35;;
75971;SDS011;64651;47.540;19.088;2023-07-13T08:40:15;8.82;;;4.97;;
75971;SDS011;64651;47.540;19.088;2023-07-13T08:45:23;9.03;;;5.67;;
75971;SDS011;64651;47.540;19.088;2023-07-13T08:50:35;9.27;;;6.32;;
75971;SDS011;64651;47.540;19.088;2023-07-13T08:56:01;9.37;;;5.93;;
75971;SDS011;64651;47.540;19.088;2023-07-13T09:06:13;8.52;;;6.10;;
75971;SDS011;64651;47.540;19.088;2023-07-13T09:11:50;10.40;;;5.70;;
75971;SDS011;64651;47.540;19.088;2023-07-13T09:16:51;8.40;;;6.05;;
75971;SDS011;64651;47.540;19.088;2023-07-13T09:21:56;9.07;;;5.90;;
75971;SDS011;64651;47.540;19.088;2023-07-13T09:27:42;8.90;;;6.05;;
75971;SDS011;64651;47.540;19.088;2023-07-13T09:32:47;9.38;;;6.15;;
75971;SDS011;64651;47.540;19.088;2023-07-13T09:37:56;8.60;;;6.40;;
75971;SDS011;64651;47.540;19.088;2023-07-13T09:43:02;9.98;;;5.82;;
75971;SDS011;64651;47.540;19.088;2023-07-13T09:48:10;8.53;;;5.97;;
75971;SDS011;64651;47.540;19.088;2023-07-13T09:53:16;8.48;;;6.00;;
75971;SDS011;64651;47.540;19.088;2023-07-13T09:58:21;9.50;;;6.37;;
75971;SDS011;64651;47.540;19.088;2023-07-13T10:03:31;8.40;;;5.80;;
75971;SDS011;64651;47.540;19.088;2023-07-13T10:08:40;8.98;;;7.45;;
75971;SDS011;64651;47.540;19.088;2023-07-13T10:13:43;8.93;;;6.70;;
75971;SDS011;64651;47.540;19.088;2023-07-13T10:18:55;9.70;;;7.60;;
75971;SDS011;64651;47.540;19.088;2023-07-13T10:24:04;8.70;;;7.70;;
75971;SDS011;64651;47.540;19.088;2023-07-13T10:29:09;11.03;;;8.93;;
75971;SDS011;64651;47.540;19.088;2023-07-13T10:34:15;10.05;;;8.30;;
75971;SDS011;64651;47.540;19.088;2023-07-13T10:39:23;11.23;;;10.13;;
75971;SDS011;64651;47.540;19.088;2023-07-13T10:44:29;10.77;;;9.68;;
75971;SDS011;64651;47.540;19.088;2023-07-13T10:49:33;11.95;;;10.85;;
75971;SDS011;64651;47.540;19.088;2023-07-13T10:54:38;10.10;;;9.00;;
75971;SDS011;64651;47.540;19.088;2023-07-13T10:59:40;12.25;;;11.00;;
75971;SDS011;64651;47.540;19.088;2023-07-13T11:04:46;10.90;;;9.90;;
75971;SDS011;64651;47.540;19.088;2023-07-13T11:09:50;11.40;;;10.30;;
75971;SDS011;64651;47.540;19.088;2023-07-13T11:25:27;11.70;;;10.68;;
75971;SDS011;64651;47.540;19.088;2023-07-13T11:31:17;11.33;;;10.23;;
75971;SDS011;64651;47.540;19.088;2023-07-13T11:36:00;10.80;;;9.80;;
75971;SDS011;64651;47.540;19.088;2023-07-13T11:41:22;11.32;;;10.05;;
75971;SDS011;64651;47.540;19.088;2023-07-13T11:46:28;9.80;;;8.80;;
75971;SDS011;64651;47.540;19.088;2023-07-13T11:51:31;11.93;;;10.80;;
75971;SDS011;64651;47.540;19.088;2023-07-13T11:56:35;11.03;;;10.03;;
75971;SDS011;64651;47.540;19.088;2023-07-13T12:01:42;11.98;;;10.93;;
75971;SDS011;64651;47.540;19.088;2023-07-13T12:06:54;11.57;;;10.57;;
75971;SDS011;64651;47.540;19.088;2023-07-13T12:11:58;11.60;;;10.60;;
75971;SDS011;64651;47.540;19.088;2023-07-13T12:17:04;9.68;;;8.77;;
75971;SDS011;64651;47.540;19.088;2023-07-13T12:22:14;11.50;;;10.40;;
75971;SDS011;64651;47.540;19.088;2023-07-13T12:32:29;10.52;;;9.63;;
75971;SDS011;64651;47.540;19.088;2023-07-13T12:37:34;10.37;;;9.37;;
75971;SDS011;64651;47.540;19.088;2023-07-13T12:42:37;12.37;;;11.18;;
75971;SDS011;64651;47.540;19.088;2023-07-13T12:47:50;12.53;;;11.33;;
75971;SDS011;64651;47.540;19.088;2023-07-13T12:53:09;11.60;;;10.50;;
75971;SDS011;64651;47.540;19.088;2023-07-13T13:03:34;13.27;;;12.07;;
75971;SDS011;64651;47.540;19.088;2023-07-13T13:08:39;13.93;;;12.73;;
75971;SDS011;64651;47.540;19.088;2023-07-13T13:13:43;12.43;;;11.43;;
75971;SDS011;64651;47.540;19.088;2023-07-13T13:18:46;12.02;;;11.00;;
75971;SDS011;64651;47.540;19.088;2023-07-13T13:23:48;11.48;;;10.32;;
75971;SDS011;64651;47.540;19.088;2023-07-13T13:28:53;11.53;;;10.37;;
75971;SDS011;64651;47.540;19.088;2023-07-13T13:33:55;13.02;;;11.65;;
75971;SDS011;64651;47.540;19.088;2023-07-13T13:38:57;12.23;;;11.13;;
75971;SDS011;64651;47.540;19.088;2023-07-13T13:44:00;11.75;;;10.75;;
75971;SDS011;64651;47.540;19.088;2023-07-13T13:49:02;10.43;;;9.32;;
75971;SDS011;64651;47.540;19.088;2023-07-13T13:54:05;10.47;;;9.47;;
75971;SDS011;64651;47.540;19.088;2023-07-13T13:59:13;12.15;;;11.05;;
75971;SDS011;64651;47.540;19.088;2023-07-13T14:04:17;11.67;;;10.57;;
75971;SDS011;64651;47.540;19.088;2023-07-13T14:09:22;11.82;;;10.73;;
75971;SDS011;64651;47.540;19.088;2023-07-13T14:14:31;10.13;;;9.13;;
75971;SDS011;64651;47.540;19.088;2023-07-13T14:19:35;8.70;;;7.80;;
75971;SDS011;64651;47.540;19.088;2023-07-13T14:24:37;8.88;;;7.75;;
75971;SDS011;64651;47.540;19.088;2023-07-13T14:29:39;8.57;;;7.63;;
75971;SDS011;64651;47.540;19.088;2023-07-13T14:34:43;8.65;;;7.75;;
75971;SDS011;64651;47.540;19.088;2023-07-13T14:39:45;9.07;;;6.40;;
75971;SDS011;64651;47.540;19.088;2023-07-13T14:44:53;9.27;;;6.60;;
75971;SDS011;64651;47.540;19.088;2023-07-13T14:49:56;7.78;;;5.55;;
75971;SDS011;64651;47.540;19.088;2023-07-13T14:54:59;8.97;;;6.03;;
75971;SDS011;64651;47.540;19.088;2023-07-13T15:00:01;7.82;;;5.43;;
75971;SDS011;64651;47.540;19.088;2023-07-13T15:05:11;8.15;;;6.20;;
75971;SDS011;64651;47.540;19.088;2023-07-13T15:10:16;7.93;;;5.33;;
75971;SDS011;64651;47.540;19.088;2023-07-13T15:15:19;9.57;;;5.75;;
75971;SDS011;64651;47.540;19.088;2023-07-13T15:20:26;9.77;;;6.00;;
75971;SDS011;64651;47.540;19.088;2023-07-13T15:25:34;7.75;;;5.00;;
75971;SDS011;64651;47.540;19.088;2023-07-13T15:30:39;7.20;;;5.00;;
75971;SDS011;64651;47.540;19.088;2023-07-13T15:35:43;8.97;;;6.00;;
75971;SDS011;64651;47.540;19.088;2023-07-13T15:40:47;8.63;;;6.03;;
75971;SDS011;64651;47.540;19.088;2023-07-13T15:45:52;8.47;;;6.00;;
75971;SDS011;64651;47.540;19.088;2023-07-13T15:50:54;8.55;;;5.40;;
75971;SDS011;64651;47.540;19.088;2023-07-13T15:56:02;9.18;;;5.62;;
75971;SDS011;64651;47.540;19.088;2023-07-13T16:01:18;10.07;;;5.73;;
75971;SDS011;64651;47.540;19.088;2023-07-13T16:06:39;9.20;;;5.37;;
75971;SDS011;64651;47.540;19.088;2023-07-13T16:11:43;8.40;;;5.20;;
75971;SDS011;64651;47.540;19.088;2023-07-13T16:16:46;8.00;;;5.15;;
75971;SDS011;64651;47.540;19.088;2023-07-13T16:21:48;7.82;;;5.50;;
75971;SDS011;64651;47.540;19.088;2023-07-13T16:26:53;8.17;;;4.80;;
75971;SDS011;64651;47.540;19.088;2023-07-13T16:37:09;8.93;;;5.47;;
75971;SDS011;64651;47.540;19.088;2023-07-13T16:42:18;8.82;;;5.28;;
75971;SDS011;64651;47.540;19.088;2023-07-13T16:47:21;7.93;;;5.50;;
75971;SDS011;64651;47.540;19.088;2023-07-13T16:52:27;8.30;;;5.03;;
75971;SDS011;64651;47.540;19.088;2023-07-13T16:57:31;7.87;;;4.95;;
75971;SDS011;64651;47.540;19.088;2023-07-13T17:02:36;8.93;;;5.30;;
75971;SDS011;64651;47.540;19.088;2023-07-13T17:07:41;8.20;;;4.93;;
75971;SDS011;64651;47.540;19.088;2023-07-13T17:12:45;8.07;;;4.87;;
75971;SDS011;64651;47.540;19.088;2023-07-13T17:17:48;8.70;;;4.80;;
75971;SDS011;64651;47.540;19.088;2023-07-13T17:22:53;9.38;;;5.10;;
75971;SDS011;64651;47.540;19.088;2023-07-13T17:27:55;7.57;;;4.93;;
75971;SDS011;64651;47.540;19.088;2023-07-13T17:32:58;8.35;;;5.03;;
75971;SDS011;64651;47.540;19.088;2023-07-13T17:38:02;9.27;;;4.75;;
75971;SDS011;64651;47.540;19.088;2023-07-13T17:43:05;8.57;;;5.03;;
75971;SDS011;64651;47.540;19.088;2023-07-13T17:48:08;8.88;;;5.60;;
75971;SDS011;64651;47.540;19.088;2023-07-13T17:53:17;8.83;;;5.17;;
75971;SDS011;64651;47.540;19.088;2023-07-13T17:58:20;7.65;;;4.82;;
75971;SDS011;64651;47.540;19.088;2023-07-13T18:03:24;8.38;;;4.93;;
75971;SDS011;64651;47.540;19.088;2023-07-13T18:08:34;7.93;;;4.50;;
75971;SDS011;64651;47.540;19.088;2023-07-13T18:13:36;6.90;;;4.22;;
75971;SDS011;64651;47.540;19.088;2023-07-13T18:18:42;7.10;;;3.67;;
75971;SDS011;64651;47.540;19.088;2023-07-13T18:23:45;7.12;;;3.62;;
75971;SDS011;64651;47.540;19.088;2023-07-13T18:28:49;8.55;;;4.10;;
75971;SDS011;64651;47.540;19.088;2023-07-13T18:33:52;7.57;;;3.70;;
75971;SDS011;64651;47.540;19.088;2023-07-13T18:38:56;7.85;;;3.92;;
75971;SDS011;64651;47.540;19.088;2023-07-13T18:43:59;7.63;;;3.90;;
75971;SDS011;64651;47.540;19.088;2023-07-13T18:49:02;7.53;;;3.58;;
75971;SDS011;64651;47.540;19.088;2023-07-13T18:54:10;6.68;;;3.47;;
75971;SDS011;64651;47.540;19.088;2023-07-13T18:59:15;7.73;;;3.90;;
75971;SDS011;64651;47.540;19.088;2023-07-13T19:04:28;7.62;;;3.70;;
75971;SDS011;64651;47.540;19.088;2023-07-13T19:09:32;8.10;;;4.10;;
75971;SDS011;64651;47.540;19.088;2023-07-13T19:14:35;6.75;;;3.28;;
75971;SDS011;64651;47.540;19.088;2023-07-13T19:19:37;6.40;;;3.15;;
75971;SDS011;64651;47.540;19.088;2023-07-13T19:24:39;6.23;;;3.30;;
75971;SDS011;64651;47.540;19.088;2023-07-13T19:29:42;7.18;;;3.55;;
75971;SDS011;64651;47.540;19.088;2023-07-13T19:34:44;9.03;;;3.70;;
75971;SDS011;64651;47.540;19.088;2023-07-13T19:39:46;7.60;;;3.53;;
75971;SDS011;64651;47.540;19.088;2023-07-13T19:44:55;6.30;;;3.12;;
75971;SDS011;64651;47.540;19.088;2023-07-13T19:49:58;7.47;;;3.10;;
75971;SDS011;64651;47.540;19.088;2023-07-13T19:55:04;6.78;;;3.62;;
75971;SDS011;64651;47.540;19.088;2023-07-13T20:00:46;7.10;;;3.30;;
75971;SDS011;64651;47.540;19.088;2023-07-13T20:05:48;6.90;;;3.58;;
75971;SDS011;64651;47.540;19.088;2023-07-13T20:10:50;8.05;;;4.00;;
75971;SDS011;64651;47.540;19.088;2023-07-13T20:15:53;8.30;;;3.90;;
75971;SDS011;64651;47.540;19.088;2023-07-13T20:20:55;7.95;;;4.00;;
75971;SDS011;64651;47.540;19.088;2023-07-13T20:25:57;6.97;;;3.63;;
75971;SDS011;64651;47.540;19.088;2023-07-13T20:31:00;7.97;;;4.72;;
75971;SDS011;64651;47.540;19.088;2023-07-13T20:36:04;8.77;;;4.40;;
75971;SDS011;64651;47.540;19.088;2023-07-13T20:41:10;7.90;;;4.77;;
75971;SDS011;64651;47.540;19.088;2023-07-13T20:46:14;7.72;;;4.72;;
75971;SDS011;64651;47.540;19.088;2023-07-13T20:51:19;8.87;;;5.07;;
75971;SDS011;64651;47.540;19.088;2023-07-13T20:56:25;8.95;;;5.03;;
75971;SDS011;64651;47.540;19.088;2023-07-13T21:01:31;9.50;;;5.18;;
75971;SDS011;64651;47.540;19.088;2023-07-13T21:06:36;9.60;;;5.17;;
75971;SDS011;64651;47.540;19.088;2023-07-13T21:11:38;8.27;;;4.40;;
75971;SDS011;64651;47.540;19.088;2023-07-13T21:16:41;9.32;;;4.68;;
75971;SDS011;64651;47.540;19.088;2023-07-13T21:21:43;9.25;;;4.80;;
75971;SDS011;64651;47.540;19.088;2023-07-13T21:26:46;7.57;;;3.75;;
75971;SDS011;64651;47.540;19.088;2023-07-13T21:31:48;8.53;;;4.60;;
75971;SDS011;64651;47.540;19.088;2023-07-13T21:36:50;8.07;;;4.78;;
75971;SDS011;64651;47.540;19.088;2023-07-13T21:41:53;8.57;;;4.15;;
75971;SDS011;64651;47.540;19.088;2023-07-13T21:46:56;9.25;;;4.50;;
75971;SDS011;64651;47.540;19.088;2023-07-13T21:51:58;7.87;;;4.20;;
75971;SDS011;64651;47.540;19.088;2023-07-13T21:57:00;7.90;;;4.67;;
75971;SDS011;64651;47.540;19.088;2023-07-13T22:02:02;10.68;;;4.28;;
75971;SDS011;64651;47.540;19.088;2023-07-13T22:07:08;7.40;;;4.65;;
75971;SDS011;64651;47.540;19.088;2023-07-13T22:12:11;8.68;;;4.78;;
75971;SDS011;64651;47.540;19.088;2023-07-13T22:17:14;9.30;;;4.28;;
75971;SDS011;64651;47.540;19.088;2023-07-13T22:22:20;7.23;;;4.07;;
75971;SDS011;64651;47.540;19.088;2023-07-13T22:27:23;9.23;;;5.07;;
75971;SDS011;64651;47.540;19.088;2023-07-13T22:32:30;8.13;;;4.25;;
75971;SDS011;64651;47.540;19.088;2023-07-13T22:37:34;8.20;;;4.55;;
75971;SDS011;64651;47.540;19.088;2023-07-13T22:42:37;8.73;;;5.03;;
75971;SDS011;64651;47.540;19.088;2023-07-13T22:47:40;8.63;;;4.90;;
75971;SDS011;64651;47.540;19.088;2023-07-13T22:52:43;8.45;;;4.68;;
75971;SDS011;64651;47.540;19.088;2023-07-13T22:57:47;8.73;;;4.60;;
75971;SDS011;64651;47.540;19.088;2023-07-13T23:02:51;9.48;;;4.93;;
75971;SDS011;64651;47.540;19.088;2023-07-13T23:07:54;9.48;;;5.12;;
75971;SDS011;64651;47.540;19.088;2023-07-13T23:12:57;9.20;;;5.33;;
75971;SDS011;64651;47.540;19.088;2023-07-13T23:18:04;9.32;;;5.03;;
75971;SDS011;64651;47.540;19.088;2023-07-13T23:23:14;8.82;;;4.62;;
75971;SDS011;64651;47.540;19.088;2023-07-13T23:28:18;9.27;;;4.68;;
75971;SDS011;64651;47.540;19.088;2023-07-13T23:38:26;8.90;;;4.70;;
75971;SDS011;64651;47.540;19.088;2023-07-13T23:43:28;8.75;;;5.28;;
75971;SDS011;64651;47.540;19.088;2023-07-13T23:48:30;9.45;;;5.60;;
75971;SDS011;64651;47.540;19.088;2023-07-13T23:53:32;10.07;;;5.30;;
75971;SDS011;64651;47.540;19.088;2023-07-13T23:58:37;8.43;;;4.85;;
